Time;durP1;ratioP1;P1;durP2;ratioP2;P2;SDS_P1;SDS_P2;PMS_P1;PMS_P2;Temp;Humidity;BMP_temperature;BMP_pressure;BME280_temperature;BME280_humidity;BME280_pressure;Samples;Min_cycle;Max_cycle;Signal;HPM_P1;HPM_P2
2022/06/10 00:00:36;;;;;;;4.13;0.40;;;;;;;25.41;42.76;101895.84;5116057;28;20035;-44
2022/06/10 00:03:04;;;;;;;1.60;0.60;;;;;;;25.42;42.69;101899.41;5114882;28;20019;-44
2022/06/10 00:05:36;;;;;;;2.63;0.80;;;;;;;25.45;42.72;101900.34;5115985;28;20054;-44
2022/06/10 00:08:07;;;;;;;4.40;0.93;;;;;;;25.44;42.40;101889.81;5115949;28;20076;-49
2022/06/10 00:10:36;;;;;;;3.15;0.70;;;;;;;25.46;42.57;101889.00;5115508;28;20408;-46
2022/06/10 00:13:05;;;;;;;3.47;0.70;;;;;;;25.40;42.42;101896.69;5115996;28;20511;-51
2022/06/10 00:15:32;;;;;;;2.75;0.52;;;;;;;25.42;42.51;101897.66;5115329;28;20051;-45
2022/06/10 00:18:01;;;;;;;1.92;0.50;;;;;;;25.39;42.68;101886.16;5115824;28;20034;-46
2022/06/10 00:20:32;;;;;;;1.90;0.60;;;;;;;25.44;42.31;101892.44;5115925;28;20027;-45
2022/06/10 00:23:01;;;;;;;2.95;0.77;;;;;;;25.44;42.59;101892.44;5114868;28;20057;-44
2022/06/10 00:25:30;;;;;;;2.65;0.43;;;;;;;25.46;42.56;101894.25;5097863;28;20039;-44
2022/06/10 00:27:58;;;;;;;1.30;0.50;;;;;;;25.42;42.51;101891.53;5114538;28;20051;-44
2022/06/10 00:30:29;;;;;;;2.22;0.82;;;;;;;25.42;42.46;101889.78;5114115;28;20026;-48
2022/06/10 00:32:59;;;;;;;1.45;0.50;;;;;;;25.37;42.77;101887.88;5115406;28;20023;-45
2022/06/10 00:35:29;;;;;;;1.83;0.60;;;;;;;25.40;42.78;101893.19;5115534;28;20031;-45
2022/06/10 00:37:58;;;;;;;2.75;0.82;;;;;;;25.40;42.50;101885.31;5115342;28;20016;-45
2022/06/10 00:40:31;;;;;;;2.63;0.50;;;;;;;25.43;42.42;101875.78;5115793;28;20106;-45
2022/06/10 00:43:00;;;;;;;2.40;0.70;;;;;;;25.45;42.55;101883.72;5115128;28;20023;-48
2022/06/10 00:45:58;;;;;;;2.63;0.80;;;;;;;25.37;42.37;101861.59;5114675;28;20058;-46
2022/06/10 00:48:31;;;;;;;2.10;0.68;;;;;;;25.40;42.20;101872.19;5112704;28;20036;-45
2022/06/10 00:51:03;;;;;;;3.67;0.80;;;;;;;25.44;42.38;101877.56;5113902;28;20385;-44
2022/06/10 00:53:35;;;;;;;2.10;0.50;;;;;;;25.41;42.54;101876.59;5113885;28;20098;-46
2022/06/10 00:56:07;;;;;;;2.60;0.70;;;;;;;25.42;42.57;101874.00;5114890;28;20441;-44
2022/06/10 00:58:40;;;;;;;1.83;0.60;;;;;;;25.39;42.85;101867.78;5113264;28;20392;-45
2022/06/10 01:01:09;;;;;;;2.47;0.90;;;;;;;25.37;42.65;101869.47;5113966;28;20034;-46
2022/06/10 01:03:38;;;;;;;3.30;0.95;;;;;;;25.33;42.84;101858.91;5114954;28;20020;-44
2022/06/10 01:06:06;;;;;;;2.42;0.60;;;;;;;25.39;42.74;101865.16;5113340;28;20055;-49
2022/06/10 01:08:35;;;;;;;1.90;0.70;;;;;;;25.37;42.80;101865.13;5113320;28;20027;-46
2022/06/10 01:11:05;;;;;;;3.67;0.77;;;;;;;25.43;42.61;101873.16;5114665;28;20540;-45
2022/06/10 01:13:55;;;;;;;2.72;0.82;;;;;;;25.41;42.60;101869.56;5114773;28;20477;-44
2022/06/10 01:16:39;;;;;;;4.07;0.80;;;;;;;25.36;42.71;101865.09;5113155;28;20047;-44
2022/06/10 01:19:17;;;;;;;2.50;0.70;;;;;;;25.39;42.71;101875.66;5114680;28;20476;-46
2022/06/10 01:22:10;;;;;;;2.35;0.73;;;;;;;25.31;42.72;101857.13;5114435;28;20092;-44
2022/06/10 01:24:58;;;;;;;4.55;0.90;;;;;;;25.45;42.52;101878.47;5113160;28;20024;-45
2022/06/10 01:28:04;;;;;;;2.40;0.65;;;;;;;25.45;42.72;101875.84;5110712;28;20084;-45
2022/06/10 01:31:01;;;;;;;3.13;0.77;;;;;;;25.43;42.52;101878.41;5114281;28;20038;-45
2022/06/10 01:33:55;;;;;;;3.90;0.98;;;;;;;25.44;42.50;101871.44;5111774;28;20385;-45
2022/06/10 01:36:25;;;;;;;2.55;0.57;;;;;;;25.44;42.51;101876.69;5107862;28;20602;-45
2022/06/10 01:39:00;;;;;;;2.70;0.82;;;;;;;25.39;42.66;101866.06;5112656;28;20032;-44
2022/06/10 01:41:48;;;;;;;3.55;0.77;;;;;;;25.38;42.82;101871.25;5113837;28;20095;-45
2022/06/10 01:44:26;;;;;;;2.38;0.60;;;;;;;25.40;42.75;101866.94;5110058;28;20032;-44
2022/06/10 01:47:10;;;;;;;2.92;1.00;;;;;;;25.36;42.54;101862.47;5113981;28;20024;-44
2022/06/10 01:49:48;;;;;;;2.63;0.57;;;;;;;25.41;42.58;101866.94;5112928;28;20362;-44
2022/06/10 01:52:40;;;;;;;3.28;1.23;;;;;;;25.43;42.22;101875.78;5113683;28;20028;-50
2022/06/10 01:55:40;;;;;;;1.83;0.70;;;;;;;25.44;42.42;101869.69;5109858;28;20032;-45
2022/06/10 01:58:32;;;;;;;1.83;0.80;;;;;;;25.29;42.43;101846.59;5097978;28;20023;-45
2022/06/10 02:01:20;;;;;;;2.20;0.40;;;;;;;25.32;42.63;101854.50;5112725;28;20115;-44
2022/06/10 02:03:55;;;;;;;2.35;0.70;;;;;;;25.38;42.71;101866.00;5112951;28;20027;-50
2022/06/10 02:06:37;;;;;;;2.47;0.75;;;;;;;25.36;42.74;101876.50;5113787;28;20034;-44
2022/06/10 02:09:10;;;;;;;2.63;0.82;;;;;;;25.39;42.56;101875.66;5112630;28;20028;-46
2022/06/10 02:11:41;;;;;;;1.67;0.40;;;;;;;25.42;42.38;101870.50;5112526;28;20047;-46
2022/06/10 02:14:13;;;;;;;1.02;0.40;;;;;;;25.41;42.59;101872.19;5112726;28;20417;-45
2022/06/10 02:16:45;;;;;;;3.53;0.73;;;;;;;25.40;42.76;101869.56;5113431;28;20071;-48
2022/06/10 02:19:18;;;;;;;2.10;0.52;;;;;;;25.40;42.52;101864.31;5095699;28;20108;-45
2022/06/10 02:21:59;;;;;;;1.27;0.40;;;;;;;25.44;42.58;101869.69;5113822;28;20023;-46
2022/06/10 02:24:37;;;;;;;1.35;0.40;;;;;;;25.44;42.35;101867.06;5112195;28;20027;-46
2022/06/10 02:27:08;;;;;;;2.20;0.60;;;;;;;25.44;42.24;101877.56;5113753;28;20031;-45
2022/06/10 02:29:59;;;;;;;1.63;0.55;;;;;;;25.36;42.37;101858.09;5113581;28;20036;-50
2022/06/10 02:32:28;;;;;;;1.70;0.50;;;;;;;25.33;42.38;101858.91;5110359;28;20038;-45
2022/06/10 02:34:57;;;;;;;1.63;0.52;;;;;;;25.42;42.28;101863.50;5113592;28;20028;-44
2022/06/10 02:37:49;;;;;;;1.08;0.43;;;;;;;25.17;42.64;101834.06;5112375;28;20023;-44
2022/06/10 02:40:29;;;;;;;1.38;0.82;;;;;;;25.41;42.57;101866.06;5113686;28;20020;-45
2022/06/10 02:43:16;;;;;;;2.28;0.93;;;;;;;25.44;42.30;101871.44;5112207;28;20032;-48
2022/06/10 02:46:04;;;;;;;2.30;0.70;;;;;;;25.44;42.35;101879.31;5110054;28;20047;-45
2022/06/10 02:48:41;;;;;;;2.83;0.73;;;;;;;25.38;42.79;101874.78;5113234;28;20049;-45
2022/06/10 02:51:10;;;;;;;2.05;0.60;;;;;;;25.40;42.54;101877.44;5115533;28;20102;-47
2022/06/10 02:53:38;;;;;;;1.85;0.50;;;;;;;25.31;42.73;101865.00;5116281;28;20020;-45
2022/06/10 02:56:18;;;;;;;0.85;0.35;;;;;;;25.37;42.54;101870.38;5117052;28;20024;-44
2022/06/10 03:02:12;;;;;;;1.83;0.40;;;;;;;25.40;42.41;101874.81;5109469;28;20161;-44
2022/06/10 03:05:08;;;;;;;1.98;0.73;;;;;;;25.43;42.25;101881.03;5116951;28;20385;-45
2022/06/10 03:07:41;;;;;;;1.13;0.32;;;;;;;25.43;42.68;101882.78;5112735;28;20141;-46
2022/06/10 03:10:33;;;;;;;3.15;0.57;;;;;;;25.35;42.36;101877.34;5117246;28;20024;-52
2022/06/10 03:13:20;;;;;;;1.38;0.35;;;;;;;25.34;42.76;101889.56;5113065;28;20050;-48
2022/06/10 03:16:15;;;;;;;1.30;0.40;;;;;;;25.37;42.49;101887.88;5116707;28;20051;-46
2022/06/10 03:18:56;;;;;;;1.70;0.40;;;;;;;25.36;42.43;101887.00;5114355;28;20063;-44
2022/06/10 03:22:03;;;;;;;1.40;0.32;;;;;;;25.34;42.77;101900.06;5116886;28;20027;-45
2022/06/10 03:24:56;;;;;;;0.68;0.40;;;;;;;25.38;42.29;101897.53;5115934;28;20119;-45
2022/06/10 03:27:48;;;;;;;1.75;0.47;;;;;;;25.36;42.74;101897.50;5113178;28;20118;-45
2022/06/10 03:30:19;;;;;;;2.08;0.50;;;;;;;25.36;42.79;101902.75;5116720;28;20385;-47
2022/06/10 03:33:10;;;;;;;1.38;0.60;;;;;;;25.41;42.41;101897.59;5115593;28;20103;-46
2022/06/10 03:35:47;;;;;;;3.13;0.60;;;;;;;25.40;42.50;101895.81;5116137;28;20106;-44
2022/06/10 03:38:16;;;;;;;1.38;0.57;;;;;;;25.33;42.76;101890.44;5115146;28;20040;-46
2022/06/10 03:40:51;;;;;;;0.80;0.30;;;;;;;25.34;42.52;101896.59;5116169;28;20028;-45
2022/06/10 03:43:19;;;;;;;;;;;;;;;25.40;42.57;101888.81;5115928;28;20027;-47
2022/06/10 03:45:50;;;;;;;1.25;0.55;;;;;;;25.39;42.84;101891.41;5114758;28;19912;-46
2022/06/10 03:48:23;;;;;;;1.85;0.40;;;;;;;25.34;42.83;101892.19;5116505;28;20019;-45
2022/06/10 03:50:52;;;;;;;0.73;0.30;;;;;;;25.31;42.71;101886.00;5116256;28;20464;-48
2022/06/10 03:53:23;;;;;;;2.50;0.45;;;;;;;25.31;42.80;101891.25;5116165;28;20028;-45
2022/06/10 03:55:52;;;;;;;1.58;0.50;;;;;;;25.28;42.89;101891.19;5116527;28;20028;-48
2022/06/10 03:58:21;;;;;;;1.90;0.50;;;;;;;25.31;42.83;101892.16;5115856;28;20465;-45
2022/06/10 04:00:49;;;;;;;1.05;0.22;;;;;;;25.30;42.74;101890.38;5116063;27;20092;-51
2022/06/10 04:03:18;;;;;;;1.40;0.40;;;;;;;25.30;43.04;101894.72;5115927;28;20027;-48
2022/06/10 04:05:46;;;;;;;1.33;0.38;;;;;;;25.30;42.74;101887.75;5116007;28;20035;-44
2022/06/10 04:08:15;;;;;;;1.88;0.40;;;;;;;25.31;42.73;101894.78;5115415;28;20028;-44
2022/06/10 04:10:44;;;;;;;1.73;0.40;;;;;;;25.27;42.70;101894.66;5116013;28;20024;-51
2022/06/10 04:13:12;;;;;;;0.90;0.40;;;;;;;25.29;42.88;101892.97;5115944;28;20098;-46
2022/06/10 04:15:41;;;;;;;0.70;0.32;;;;;;;25.27;42.84;101892.94;5115475;28;20055;-44
2022/06/10 04:18:09;;;;;;;0.50;0.43;;;;;;;25.25;43.21;101892.00;5115775;28;20496;-47
2022/06/10 04:20:40;;;;;;;1.10;0.40;;;;;;;25.23;43.02;101887.59;5115620;28;20015;-46
2022/06/10 04:23:08;;;;;;;1.40;0.35;;;;;;;25.24;42.85;101891.97;5115825;28;20457;-45
2022/06/10 04:25:38;;;;;;;1.48;0.35;;;;;;;25.27;43.08;101892.94;5114391;28;20078;-46
2022/06/10 04:28:07;;;;;;;1.02;0.30;;;;;;;25.26;43.06;101898.13;5115498;28;20453;-45
2022/06/10 04:30:39;;;;;;;1.73;0.50;;;;;;;25.22;43.07;101891.94;5115553;28;20031;-47
2022/06/10 04:33:08;;;;;;;1.13;0.32;;;;;;;25.28;42.99;101897.34;5115487;28;20024;-46
2022/06/10 04:35:37;;;;;;;0.88;0.30;;;;;;;25.26;42.95;101899.03;5114266;28;20461;-46
2022/06/10 04:38:07;;;;;;;1.05;0.40;;;;;;;25.30;42.63;101895.63;5114614;28;20028;-45
2022/06/10 04:40:38;;;;;;;0.82;0.25;;;;;;;25.20;42.98;101882.25;5115056;28;20119;-47
2022/06/10 04:43:07;;;;;;;0.60;0.30;;;;;;;25.27;42.91;101894.66;5115362;27;20066;-51
2022/06/10 04:45:39;;;;;;;1.15;0.50;;;;;;;25.27;42.85;101900.81;5113782;28;20023;-45
2022/06/10 04:48:08;;;;;;;1.27;0.45;;;;;;;25.25;43.18;101897.25;5115228;28;20059;-45
2022/06/10 04:50:36;;;;;;;1.45;0.40;;;;;;;25.27;43.02;101895.56;5113761;28;20051;-44
2022/06/10 04:53:05;;;;;;;0.50;0.30;;;;;;;25.25;42.85;101892.00;5115127;28;20055;-45
2022/06/10 04:55:33;;;;;;;2.03;0.40;;;;;;;25.23;42.87;101887.59;5115127;28;20031;-44
2022/06/10 04:58:01;;;;;;;0.93;0.30;;;;;;;25.26;43.24;101892.88;5113597;28;20062;-45
2022/06/10 05:00:33;;;;;;;2.60;0.52;;;;;;;25.28;43.25;101891.19;5113744;28;20028;-49
2022/06/10 05:03:02;;;;;;;0.52;0.30;;;;;;;25.23;43.25;101885.84;5115197;28;20070;-45
2022/06/10 05:05:30;;;;;;;0.95;0.40;;;;;;;25.25;43.07;101899.88;5114704;28;20028;-49
2022/06/10 05:07:59;;;;;;;0.70;0.30;;;;;;;25.28;43.04;101896.44;5114792;28;20016;-45
2022/06/10 05:10:28;;;;;;;3.10;0.82;;;;;;;25.34;43.09;101893.94;5115012;28;20026;-44
2022/06/10 05:12:56;;;;;;;1.50;0.40;;;;;;;25.32;43.04;101898.28;5112748;28;20423;-44
2022/06/10 05:15:28;;;;;;;2.15;0.50;;;;;;;25.28;43.21;101893.81;5114408;28;20392;-48
2022/06/10 05:17:58;;;;;;;1.10;0.35;;;;;;;25.36;43.11;101902.75;5114419;28;20031;-47
2022/06/10 05:20:31;;;;;;;1.58;0.40;;;;;;;25.36;42.98;101907.09;5114347;28;20544;-46
2022/06/10 05:23:01;;;;;;;2.13;0.50;;;;;;;25.40;42.85;101906.31;5114543;28;20032;-47
2022/06/10 05:25:30;;;;;;;1.92;0.85;;;;;;;25.41;42.99;101905.47;5114628;28;20488;-45
2022/06/10 05:27:59;;;;;;;1.25;0.52;;;;;;;25.36;42.77;101899.22;5114412;28;20042;-44
2022/06/10 05:30:30;;;;;;;2.92;0.47;;;;;;;25.38;42.95;101906.31;5114115;28;20461;-45
2022/06/10 05:33:00;;;;;;;0.98;0.40;;;;;;;25.42;42.58;101904.66;5114310;27;20488;-48
2022/06/10 05:35:29;;;;;;;2.58;0.50;;;;;;;25.43;42.67;101903.81;5112776;28;20028;-44
2022/06/10 05:37:57;;;;;;;1.30;0.40;;;;;;;25.41;42.83;101910.72;5114241;28;20024;-48
2022/06/10 05:40:27;;;;;;;0.68;0.45;;;;;;;25.40;42.76;101904.56;5114225;28;20385;-49
2022/06/10 05:42:56;;;;;;;3.03;0.50;;;;;;;25.39;42.87;101908.09;5113539;28;20023;-51
2022/06/10 05:45:25;;;;;;;1.40;0.45;;;;;;;25.45;42.71;101910.84;5113704;28;20102;-45
2022/06/10 05:47:58;;;;;;;2.05;0.52;;;;;;;25.40;42.68;101911.59;5114064;28;20051;-46
2022/06/10 05:50:32;;;;;;;1.02;0.30;;;;;;;25.44;42.72;101914.34;5112497;28;20454;-46
2022/06/10 05:53:01;;;;;;;4.20;1.05;;;;;;;25.43;43.05;101915.19;5114259;28;20031;-44
2022/06/10 05:55:32;;;;;;;4.15;0.60;;;;;;;25.43;43.10;101923.06;5112710;28;20068;-45
2022/06/10 05:58:00;;;;;;;2.70;0.70;;;;;;;25.45;42.84;101920.50;5113926;28;20370;-44
2022/06/10 06:00:31;;;;;;;2.58;0.60;;;;;;;25.41;43.04;101927.38;5113865;28;20104;-45
2022/06/10 06:02:59;;;;;;;3.75;0.70;;;;;;;25.38;43.30;101929.94;5114148;28;20465;-47
2022/06/10 06:05:28;;;;;;;2.13;0.45;;;;;;;25.42;43.00;101930.94;5113675;28;20065;-49
2022/06/10 06:07:57;;;;;;;2.25;0.55;;;;;;;25.41;42.88;101923.88;5113162;28;20030;-44
2022/06/10 06:10:28;;;;;;;3.47;0.40;;;;;;;25.50;42.83;101931.09;5113722;28;20366;-45
2022/06/10 06:12:57;;;;;;;1.48;0.32;;;;;;;25.46;43.08;101917.88;5113782;28;20160;-46
2022/06/10 06:15:25;;;;;;;1.00;0.40;;;;;;;25.42;43.04;101913.41;5113504;28;20128;-45
2022/06/10 06:17:54;;;;;;;1.63;0.60;;;;;;;25.44;43.09;101914.34;5113921;28;20035;-45
2022/06/10 06:20:24;;;;;;;1.02;0.32;;;;;;;25.43;43.05;101911.69;5114442;28;20461;-52
2022/06/10 06:22:53;;;;;;;3.72;0.77;;;;;;;25.43;42.87;101927.44;5113525;28;20477;-50
2022/06/10 06:25:22;;;;;;;3.10;1.30;;;;;;;25.52;42.95;101927.63;5117140;28;20522;-52
2022/06/10 06:27:52;;;;;;;2.15;0.50;;;;;;;25.52;42.96;101925.00;5117996;28;20538;-47
2022/06/10 06:30:32;;;;;;;1.17;0.30;;;;;;;25.61;42.83;101935.72;5117315;28;20092;-48
2022/06/10 06:33:04;;;;;;;2.63;0.38;;;;;;;25.61;42.78;101938.38;5117771;28;20024;-49
2022/06/10 06:35:35;;;;;;;2.25;0.50;;;;;;;25.51;42.85;101912.72;5117642;28;20031;-46
2022/06/10 06:38:05;;;;;;;1.63;0.38;;;;;;;25.66;42.60;101930.56;5117742;28;20028;-47
2022/06/10 06:40:34;;;;;;;1.23;0.28;;;;;;;25.72;42.68;101930.72;5117568;28;20035;-52
2022/06/10 06:43:02;;;;;;;2.03;0.47;;;;;;;25.74;42.67;101926.34;5117795;28;20028;-46
2022/06/10 06:45:30;;;;;;;1.30;0.30;;;;;;;25.73;43.05;101939.47;5117502;28;20085;-48
2022/06/10 06:47:58;;;;;;;0.70;0.30;;;;;;;25.78;42.63;101930.81;5116678;28;20028;-48
2022/06/10 06:50:29;;;;;;;1.30;0.40;;;;;;;25.80;42.60;101938.75;5117519;28;20020;-46
2022/06/10 06:52:57;;;;;;;1.13;0.35;;;;;;;25.83;42.62;101936.16;5116889;28;20023;-52
2022/06/10 06:55:26;;;;;;;1.35;0.40;;;;;;;25.84;42.66;101940.56;5116639;28;20536;-46
2022/06/10 06:57:54;;;;;;;2.50;0.50;;;;;;;25.74;42.52;101914.97;5116882;28;20030;-51
2022/06/10 07:00:26;;;;;;;1.20;0.50;;;;;;;25.88;42.51;101934.53;5116035;28;20458;-46
2022/06/10 07:02:54;;;;;;;3.28;0.30;;;;;;;25.87;42.38;101938.00;5117427;28;20077;-46
2022/06/10 07:05:24;;;;;;;1.48;0.60;;;;;;;25.90;42.44;101948.59;5117932;28;20036;-46
2022/06/10 07:07:53;;;;;;;1.40;0.57;;;;;;;25.91;42.36;101945.09;5117071;28;20059;-51
2022/06/10 07:10:23;;;;;;;1.88;0.35;;;;;;;25.91;42.45;101952.09;5116971;28;20509;-47
2022/06/10 07:12:51;;;;;;;2.95;0.50;;;;;;;25.89;42.22;101948.56;5117225;28;20035;-51
2022/06/10 07:15:21;;;;;;;2.17;0.40;;;;;;;25.94;42.57;101950.44;5115066;28;20030;-48
2022/06/10 07:17:49;;;;;;;1.58;0.40;;;;;;;25.94;42.44;101962.66;5116919;28;20400;-48
2022/06/10 07:20:25;;;;;;;1.42;0.52;;;;;;;25.96;42.71;101960.09;5116946;27;20028;-46
2022/06/10 07:22:53;;;;;;;3.85;0.85;;;;;;;25.96;42.54;101955.72;5116202;28;20369;-52
2022/06/10 07:25:23;;;;;;;3.28;0.95;;;;;;;25.97;42.56;101954.84;5116653;28;20026;-48
2022/06/10 07:27:52;;;;;;;3.65;0.88;;;;;;;26.03;42.50;101964.59;5098895;28;20067;-48
2022/06/10 07:30:23;;;;;;;1.98;0.80;;;;;;;26.04;42.42;101962.03;5115504;28;20123;-52
2022/06/10 07:32:52;;;;;;;1.85;0.65;;;;;;;26.04;42.48;101958.50;5116390;28;20024;-45
2022/06/10 07:35:21;;;;;;;3.17;0.75;;;;;;;26.07;42.43;101963.81;5116172;28;20440;-49
2022/06/10 07:37:50;;;;;;;2.92;0.60;;;;;;;26.06;42.63;101967.31;5116408;28;20034;-48
2022/06/10 07:43:11;;;;;;;1.92;0.60;;;;;;;26.12;42.55;101974.44;5112556;28;20039;-48
2022/06/10 07:45:38;;;;;;;1.88;0.73;;;;;;;26.09;42.29;101970.00;5115924;28;20044;-48
2022/06/10 07:48:08;;;;;;;3.10;0.60;;;;;;;26.12;42.52;101970.09;5116178;28;20028;-48
2022/06/10 07:50:36;;;;;;;2.55;0.60;;;;;;;26.13;42.66;101982.41;5116096;28;20110;-47
2022/06/10 07:53:05;;;;;;;1.92;0.68;;;;;;;26.12;42.58;101980.63;5115754;28;20049;-49
2022/06/10 07:55:33;;;;;;;2.55;0.70;;;;;;;26.13;42.61;101976.22;5115914;28;20396;-47
2022/06/10 07:58:02;;;;;;;2.13;0.75;;;;;;;26.14;42.62;101983.25;5114274;28;20067;-47
2022/06/10 08:00:30;;;;;;;2.72;1.02;;;;;;;26.14;42.76;101980.63;5116217;28;20039;-52
2022/06/10 08:02:59;;;;;;;2.92;0.88;;;;;;;26.13;42.68;101977.13;5115739;28;20024;-47
2022/06/10 08:05:28;;;;;;;3.05;0.80;;;;;;;26.19;42.78;101987.75;5115530;28;20034;-52
2022/06/10 08:07:57;;;;;;;1.35;0.60;;;;;;;26.15;42.49;101987.66;5115982;28;20052;-52
2022/06/10 08:10:29;;;;;;;3.75;0.80;;;;;;;26.16;42.51;101984.19;5115885;28;20023;-49
2022/06/10 08:12:57;;;;;;;3.40;0.85;;;;;;;26.17;42.63;101988.59;5115918;28;20015;-47
2022/06/10 08:15:26;;;;;;;2.17;1.10;;;;;;;26.17;42.48;101996.47;5115615;28;20028;-47
2022/06/10 08:17:56;;;;;;;2.65;0.60;;;;;;;26.15;42.56;101999.06;5115595;28;20031;-45
2022/06/10 08:23:32;;;;;;;2.95;0.80;;;;;;;26.19;42.63;102000.03;5108192;28;20043;-48
2022/06/10 08:26:04;;;;;;;2.60;0.88;;;;;;;26.15;42.69;102001.69;5115487;28;20055;-45
2022/06/10 08:28:33;;;;;;;2.22;0.90;;;;;;;26.13;42.63;101987.66;5115268;27;20419;-48
2022/06/10 08:31:01;;;;;;;1.83;0.80;;;;;;;26.19;42.67;101995.66;5115656;28;20024;-45
2022/06/10 08:33:30;;;;;;;2.95;0.90;;;;;;;26.17;42.70;101993.84;5115600;28;20415;-44
2022/06/10 08:36:00;;;;;;;2.53;0.75;;;;;;;26.20;42.63;101992.16;5115021;28;20058;-47
2022/06/10 08:38:28;;;;;;;3.00;1.00;;;;;;;26.23;42.68;101986.97;5115311;28;20030;-49
2022/06/10 08:41:01;;;;;;;3.53;0.80;;;;;;;26.20;42.95;101996.56;5114802;28;20027;-48
2022/06/10 08:43:33;;;;;;;1.85;0.80;;;;;;;26.29;42.79;101999.34;5115551;28;20069;-53
